createdAt,value
2023-02-01T00:01:27.775Z,13.63
2023-02-01T00:03:55.986Z,13.60
2023-02-01T00:06:24.053Z,15.88
2023-02-01T00:08:56.770Z,15.75
2023-02-01T00:11:25.453Z,14.57
2023-02-01T00:13:54.416Z,17.80
2023-02-01T00:16:28.579Z,17.25
2023-02-01T00:19:08.661Z,16.90
2023-02-01T00:21:37.370Z,21.42
2023-02-01T00:24:06.030Z,21.75
2023-02-01T00:26:38.738Z,23.58
2023-02-01T00:29:21.024Z,23.02
2023-02-01T00:31:51.768Z,21.45
2023-02-01T00:34:20.800Z,22.75
2023-02-01T00:36:49.595Z,23.05
2023-02-01T00:39:18.292Z,24.73
2023-02-01T00:41:46.748Z,23.88
2023-02-01T00:44:15.376Z,23.83
2023-02-01T00:46:43.388Z,18.42
2023-02-01T00:49:11.929Z,19.63
2023-02-01T00:51:40.419Z,20.17
2023-02-01T00:54:08.335Z,19.77
2023-02-01T00:56:37.897Z,20.50
2023-02-01T00:59:05.921Z,21.15
2023-02-01T01:01:34.678Z,18.55
2023-02-01T01:04:03.379Z,19.77
2023-02-01T01:06:33.507Z,19.40
2023-02-01T01:09:05.686Z,20.42
2023-02-01T01:11:37.599Z,20.63
2023-02-01T01:14:09.340Z,23.77
2023-02-01T01:16:38.264Z,23.80
2023-02-01T01:19:06.771Z,26.85
2023-02-01T01:21:35.203Z,25.38
2023-02-01T01:24:03.197Z,27.95
2023-02-01T01:26:32.397Z,25.08
2023-02-01T01:29:01.194Z,24.38
2023-02-01T01:31:31.180Z,28.58
2023-02-01T01:34:00.496Z,25.23
2023-02-01T01:36:30.431Z,25.63
2023-02-01T01:38:58.481Z,26.17
2023-02-01T01:41:32.221Z,27.05
2023-02-01T01:44:27.919Z,27.58
2023-02-01T01:46:56.735Z,25.65
2023-02-01T01:49:27.958Z,27.27
2023-02-01T01:52:00.455Z,25.30
2023-02-01T01:54:30.558Z,28.10
2023-02-01T01:57:04.651Z,23.88
2023-02-01T01:59:36.276Z,23.65
2023-02-01T02:02:05.613Z,26.15
2023-02-01T02:04:35.598Z,25.35
2023-02-01T02:07:08.544Z,25.92
2023-02-01T02:09:36.782Z,24.83
2023-02-01T02:12:05.090Z,25.50
2023-02-01T02:14:35.447Z,22.50
2023-02-01T02:17:12.398Z,19.10
2023-02-01T02:20:10.619Z,19.60
2023-02-01T02:23:04.412Z,19.65
2023-02-01T02:25:52.201Z,19.02
2023-02-01T02:28:26.327Z,17.88
2023-02-01T02:31:24.179Z,18.65
2023-02-01T02:33:52.143Z,18.35
2023-02-01T02:36:57.301Z,20.60
2023-02-01T02:39:50.582Z,18.00
2023-02-01T02:42:57.550Z,17.67
2023-02-01T02:46:12.063Z,18.83
2023-02-01T02:49:04.193Z,17.00
2023-02-01T02:51:54.291Z,20.80
2023-02-01T02:54:51.612Z,19.48
2023-02-01T02:57:50.156Z,17.08
2023-02-01T03:00:43.671Z,16.25
2023-02-01T03:03:31.083Z,15.43
2023-02-01T03:05:59.318Z,14.93
2023-02-01T03:08:30.438Z,16.65
2023-02-01T03:11:06.578Z,18.02
2023-02-01T03:13:44.543Z,14.07
2023-02-01T03:16:27.873Z,12.40
2023-02-01T03:19:04.999Z,14.30
2023-02-01T03:21:37.131Z,16.70
2023-02-01T03:24:12.047Z,15.93
2023-02-01T03:26:46.978Z,17.23
2023-02-01T03:29:25.369Z,17.17
2023-02-01T03:31:54.353Z,16.42
2023-02-01T03:34:23.225Z,15.43
2023-02-01T03:37:02.468Z,14.65
2023-02-01T03:39:40.690Z,15.98
2023-02-01T03:42:25.144Z,16.85
2023-02-01T03:45:16.763Z,18.25
2023-02-01T03:47:50.083Z,16.67
2023-02-01T03:50:21.505Z,17.40
2023-02-01T03:52:57.358Z,16.25
2023-02-01T03:55:28.628Z,17.40
2023-02-01T03:58:09.410Z,15.05
2023-02-01T04:00:37.915Z,13.60
2023-02-01T04:03:07.893Z,14.05
2023-02-01T04:05:36.346Z,15.65
2023-02-01T04:08:07.115Z,14.10
2023-02-01T04:10:35.215Z,14.88
2023-02-01T04:13:03.269Z,18.63
2023-02-01T04:15:31.254Z,14.65
2023-02-01T04:17:59.235Z,11.52
2023-02-01T04:20:27.811Z,11.63
2023-02-01T04:22:55.905Z,12.63
2023-02-01T04:25:23.952Z,12.55
2023-02-01T04:27:51.799Z,12.32
2023-02-01T04:30:20.455Z,11.35
2023-02-01T04:32:48.541Z,12.00
2023-02-01T04:35:16.586Z,16.02
2023-02-01T04:37:45.339Z,16.17
2023-02-01T04:40:13.685Z,16.38
2023-02-01T04:42:42.826Z,16.80
2023-02-01T04:45:11.284Z,17.05
2023-02-01T04:47:39.490Z,15.88
2023-02-01T04:50:11.433Z,16.08
2023-02-01T04:52:40.004Z,14.20
2023-02-01T04:55:08.351Z,16.95
2023-02-01T04:57:36.717Z,16.08
2023-02-01T05:00:05.323Z,14.05
2023-02-01T05:02:33.727Z,14.90
2023-02-01T05:05:02.855Z,12.88
2023-02-01T05:07:31.158Z,12.85
2023-02-01T05:09:59.813Z,12.85
2023-02-01T05:12:47.244Z,13.45
2023-02-01T05:15:16.200Z,15.10
2023-02-01T05:17:44.437Z,15.02
2023-02-01T05:20:12.736Z,13.98
2023-02-01T05:22:42.041Z,13.15
2023-02-01T05:25:10.223Z,13.05
2023-02-01T05:27:38.308Z,12.18
2023-02-01T05:30:09.585Z,13.18
2023-02-01T05:32:37.927Z,12.32
2023-02-01T05:35:06.838Z,10.63
2023-02-01T05:37:34.902Z,8.40
2023-02-01T05:40:02.815Z,12.45
2023-02-01T05:42:32.091Z,11.48
2023-02-01T05:45:00.662Z,10.65
2023-02-01T05:47:28.684Z,9.73
2023-02-01T05:49:56.651Z,12.30
2023-02-01T05:52:24.621Z,14.40
2023-02-01T05:54:53.798Z,12.63
2023-02-01T05:57:21.720Z,10.43
2023-02-01T05:59:50.643Z,11.70
2023-02-01T06:02:18.558Z,9.95
2023-02-01T06:04:46.669Z,11.40
2023-02-01T06:07:15.569Z,13.35
2023-02-01T06:09:44.107Z,13.25
2023-02-01T06:12:12.072Z,14.00
2023-02-01T06:14:40.034Z,12.57
2023-02-01T06:17:08.061Z,12.32
2023-02-01T06:19:36.993Z,14.88
2023-02-01T06:22:07.287Z,14.82
2023-02-01T06:24:35.213Z,15.82
2023-02-01T06:27:03.325Z,13.90
2023-02-01T06:29:32.134Z,14.13
2023-02-01T06:32:01.147Z,13.93
2023-02-01T06:34:29.223Z,15.02
2023-02-01T06:36:57.181Z,12.68
2023-02-01T06:39:25.539Z,16.17
2023-02-01T06:41:54.047Z,19.85
2023-02-01T06:44:22.576Z,15.30
2023-02-01T06:46:50.814Z,17.00
2023-02-01T06:49:20.904Z,18.67
2023-02-01T06:51:49.753Z,17.20
2023-02-01T06:54:17.810Z,19.75
2023-02-01T06:56:46.385Z,13.32
2023-02-01T06:59:17.189Z,15.82
2023-02-01T07:01:45.391Z,15.50
2023-02-01T07:04:13.649Z,16.25
2023-02-01T07:06:42.027Z,18.63
2023-02-01T07:09:11.251Z,31.45
2023-02-01T07:11:42.120Z,19.23
2023-02-01T07:14:14.201Z,20.73
2023-02-01T07:16:42.717Z,20.13
2023-02-01T07:19:11.354Z,16.83
2023-02-01T07:21:39.552Z,21.33
2023-02-01T07:24:08.077Z,20.38
2023-02-01T07:26:36.469Z,20.73
2023-02-01T07:29:04.766Z,22.25
2023-02-01T07:31:32.999Z,21.23
2023-02-01T07:34:02.178Z,21.15
2023-02-01T07:36:30.176Z,17.92
2023-02-01T07:38:58.935Z,18.52
2023-02-01T07:41:27.022Z,18.90
2023-02-01T07:43:55.915Z,20.52
2023-02-01T07:46:25.187Z,20.52
2023-02-01T07:48:53.083Z,21.17
2023-02-01T07:51:21.506Z,20.63
2023-02-01T07:53:49.899Z,20.05
2023-02-01T07:56:20.137Z,22.20
2023-02-01T07:58:53.078Z,20.63
2023-02-01T08:01:25.847Z,17.92
2023-02-01T08:03:57.517Z,17.85
2023-02-01T08:06:26.277Z,20.90
2023-02-01T08:08:55.272Z,18.15
2023-02-01T08:11:24.271Z,17.48
2023-02-01T08:13:52.711Z,16.63
2023-02-01T08:16:22.497Z,16.20
2023-02-01T08:18:52.155Z,15.63
2023-02-01T08:21:23.464Z,14.32
2023-02-01T08:23:51.998Z,15.38
2023-02-01T08:26:24.505Z,13.02
2023-02-01T08:28:59.500Z,12.88
2023-02-01T08:31:30.245Z,12.60
2023-02-01T08:34:01.482Z,12.18
2023-02-01T08:36:31.565Z,12.70
2023-02-01T08:38:59.746Z,13.52
2023-02-01T08:41:34.303Z,12.15
2023-02-01T08:44:03.140Z,12.20
2023-02-01T08:46:31.149Z,13.60
2023-02-01T08:49:00.345Z,13.93
2023-02-01T08:51:28.953Z,14.88
2023-02-01T08:53:57.334Z,16.17
2023-02-01T08:56:25.340Z,17.45
2023-02-01T08:58:53.493Z,16.02
2023-02-01T09:01:21.609Z,15.23
2023-02-01T09:03:49.834Z,15.52
2023-02-01T09:06:18.715Z,16.42
2023-02-01T09:08:46.889Z,16.58
2023-02-01T09:11:18.408Z,16.15
2023-02-01T09:13:47.976Z,18.48
2023-02-01T09:16:17.125Z,18.63
2023-02-01T09:18:55.832Z,20.42
2023-02-01T09:21:30.819Z,19.20
2023-02-01T09:23:59.071Z,19.42
2023-02-01T09:26:32.068Z,18.30
2023-02-01T09:29:02.136Z,18.40
2023-02-01T09:31:31.457Z,18.73
2023-02-01T09:34:00.493Z,18.52
2023-02-01T09:36:30.927Z,19.40
2023-02-01T09:39:00.646Z,20.15
2023-02-01T09:41:50.279Z,20.02
2023-02-01T09:44:43.860Z,19.83
2023-02-01T09:47:19.637Z,21.17
2023-02-01T09:50:03.774Z,21.30
2023-02-01T09:52:44.205Z,22.10
2023-02-01T09:55:21.005Z,20.83
2023-02-01T09:58:01.258Z,19.77
2023-02-01T10:00:35.489Z,23.88
2023-02-01T10:03:04.143Z,23.85
2023-02-01T10:05:41.612Z,23.08
2023-02-01T10:08:31.278Z,20.20
2023-02-01T10:11:18.183Z,17.13
2023-02-01T10:13:49.559Z,15.07
2023-02-01T10:16:38.334Z,15.02
2023-02-01T10:19:09.115Z,14.18
2023-02-01T10:21:52.230Z,17.48
2023-02-01T10:24:38.568Z,15.93
2023-02-01T10:27:22.583Z,17.08
2023-02-01T10:29:59.857Z,13.65
2023-02-01T10:32:33.796Z,13.93
2023-02-01T10:35:17.828Z,13.50
2023-02-01T10:37:47.929Z,14.18
2023-02-01T10:40:26.057Z,15.15
2023-02-01T10:42:58.839Z,13.48
2023-02-01T10:45:30.070Z,11.07
2023-02-01T10:48:01.471Z,8.68
2023-02-01T10:50:42.359Z,9.23
2023-02-01T10:53:16.169Z,9.30
2023-02-01T10:55:46.674Z,10.40
2023-02-01T10:58:26.991Z,10.98
2023-02-01T11:01:04.054Z,12.15
2023-02-01T11:03:46.102Z,10.13
2023-02-01T11:06:27.114Z,15.55
2023-02-01T11:09:11.489Z,10.18
2023-02-01T11:11:48.567Z,12.40
2023-02-01T11:14:19.688Z,15.70
2023-02-01T11:16:54.493Z,12.27
2023-02-01T11:19:23.295Z,11.27
2023-02-01T11:21:57.568Z,27.65
2023-02-01T11:24:34.110Z,12.68
2023-02-01T11:27:06.826Z,15.10
2023-02-01T11:29:41.506Z,26.58
2023-02-01T11:32:13.689Z,16.10
2023-02-01T11:34:47.455Z,20.27
2023-02-01T11:37:29.683Z,15.68
2023-02-01T11:40:05.002Z,14.77
2023-02-01T11:42:33.447Z,11.77
2023-02-01T11:45:26.111Z,12.55
2023-02-01T11:47:56.291Z,12.82
2023-02-01T11:50:29.127Z,12.60
2023-02-01T11:52:57.588Z,13.85
2023-02-01T11:55:50.199Z,17.90
2023-02-01T11:58:30.383Z,42.60
2023-02-01T12:01:06.204Z,22.23
2023-02-01T12:03:50.117Z,19.48
2023-02-01T12:06:24.380Z,25.55
2023-02-01T12:09:16.605Z,14.50
2023-02-01T12:11:52.542Z,14.70
2023-02-01T12:14:57.166Z,11.35
2023-02-01T12:17:50.189Z,12.55
2023-02-01T12:20:27.811Z,12.38
2023-02-01T12:23:37.368Z,11.23
2023-02-01T12:26:24.274Z,11.15
2023-02-01T12:29:12.851Z,10.23
2023-02-01T12:32:09.121Z,11.95
2023-02-01T12:35:16.477Z,10.27
2023-02-01T12:38:18.342Z,12.20
2023-02-01T12:41:05.088Z,10.85
2023-02-01T12:43:54.154Z,24.67
2023-02-01T12:46:40.762Z,17.45
2023-02-01T12:49:32.927Z,9.82
2023-02-01T12:52:07.039Z,12.98
2023-02-01T12:55:03.895Z,10.13
2023-02-01T12:57:39.116Z,11.02
2023-02-01T13:00:40.161Z,10.88
2023-02-01T13:03:29.435Z,9.85
2023-02-01T13:06:08.939Z,8.77
2023-02-01T13:08:46.155Z,8.70
2023-02-01T13:11:25.640Z,9.02
2023-02-01T13:14:18.060Z,11.23
2023-02-01T13:16:50.210Z,9.88
2023-02-01T13:19:42.524Z,9.27
2023-02-01T13:22:22.678Z,10.38
2023-02-01T13:25:14.127Z,9.15
2023-02-01T13:27:42.684Z,8.48
2023-02-01T13:30:21.106Z,7.75
2023-02-01T13:33:53.308Z,6.95
2023-02-01T13:35:59.627Z,6.18
2023-02-01T13:38:46.213Z,6.63
2023-02-01T13:41:31.204Z,6.60
2023-02-01T13:44:05.649Z,6.68
2023-02-01T13:46:43.250Z,7.55
2023-02-01T13:49:25.549Z,7.15
2023-02-01T13:51:56.987Z,5.97
2023-02-01T13:54:32.549Z,6.68
2023-02-01T13:57:03.020Z,6.53
2023-02-01T13:59:41.677Z,5.97
2023-02-01T14:02:37.507Z,7.10
2023-02-01T14:05:09.931Z,6.85
2023-02-01T14:07:58.776Z,6.65
2023-02-01T14:10:49.142Z,6.38
2023-02-01T14:13:33.405Z,7.15
2023-02-01T14:16:04.417Z,7.93
2023-02-01T14:18:38.554Z,6.68
2023-02-01T14:21:30.447Z,7.75
2023-02-01T14:24:13.851Z,7.80
2023-02-01T14:26:46.886Z,8.20
2023-02-01T14:29:21.900Z,8.88
2023-02-01T14:32:26.597Z,18.83
2023-02-01T14:34:58.276Z,17.10
2023-02-01T14:37:32.998Z,10.95
2023-02-01T14:40:04.029Z,8.57
2023-02-01T14:42:44.079Z,7.13
2023-02-01T14:45:23.141Z,7.72
2023-02-01T14:48:07.035Z,7.15
2023-02-01T14:50:37.646Z,7.50
2023-02-01T14:53:12.825Z,8.40
2023-02-01T14:56:15.707Z,7.70
2023-02-01T14:59:07.447Z,7.22
2023-02-01T15:01:40.459Z,7.43
2023-02-01T15:04:19.742Z,7.15
2023-02-01T15:06:55.249Z,8.05
2023-02-01T15:09:30.843Z,7.05
2023-02-01T15:12:25.711Z,10.60
2023-02-01T15:15:12.744Z,8.23
2023-02-01T15:17:40.755Z,8.23
2023-02-01T15:20:22.518Z,8.02
2023-02-01T15:23:08.869Z,8.35
2023-02-01T15:25:40.608Z,8.57
2023-02-01T15:28:15.235Z,9.05
2023-02-01T15:31:04.481Z,8.95
2023-02-01T15:33:33.666Z,9.15
2023-02-01T15:36:14.615Z,8.15
2023-02-01T15:38:44.239Z,7.43
2023-02-01T15:41:19.522Z,10.82
2023-02-01T15:43:56.600Z,9.40
2023-02-01T15:46:33.108Z,8.52
2023-02-01T15:49:01.641Z,8.85
2023-02-01T15:51:33.677Z,9.82
2023-02-01T15:54:09.232Z,11.98
2023-02-01T15:56:42.084Z,15.35
2023-02-01T15:59:37.407Z,9.45
2023-02-01T16:02:05.782Z,12.93
2023-02-01T16:04:34.283Z,11.20
2023-02-01T16:07:05.672Z,8.98
2023-02-01T16:09:39.122Z,11.77
2023-02-01T16:14:59.432Z,10.80
2023-02-01T16:17:27.366Z,10.07
2023-02-01T16:19:55.563Z,10.15
2023-02-01T16:22:23.663Z,10.95
2023-02-01T16:24:52.701Z,10.32
2023-02-01T16:27:22.217Z,10.60
2023-02-01T16:29:51.011Z,9.88
2023-02-01T16:32:22.784Z,10.52
2023-02-01T16:34:50.911Z,10.63
2023-02-01T16:37:23.974Z,10.52
2023-02-01T16:39:52.573Z,11.43
2023-02-01T16:42:21.826Z,11.60
2023-02-01T16:44:50.474Z,11.85
2023-02-01T16:47:23.904Z,11.23
2023-02-01T16:49:53.073Z,11.15
2023-02-01T16:52:24.245Z,11.48
2023-02-01T16:54:52.218Z,11.90
2023-02-01T16:57:24.491Z,12.90
2023-02-01T16:59:52.505Z,12.68
2023-02-01T17:02:22.917Z,12.15
2023-02-01T17:04:51.584Z,13.20
2023-02-01T17:07:21.019Z,14.75
2023-02-01T17:09:49.337Z,19.13
2023-02-01T17:12:27.742Z,16.10
2023-02-01T17:14:58.439Z,17.58
2023-02-01T17:17:44.967Z,24.83
2023-02-01T17:20:23.428Z,52.00
2023-02-01T17:22:53.343Z,43.05
2023-02-01T17:25:23.387Z,33.53
2023-02-01T17:27:52.088Z,27.02
2023-02-01T17:30:20.312Z,26.80
2023-02-01T17:32:49.548Z,31.67
2023-02-01T17:35:24.368Z,31.02
2023-02-01T17:37:53.964Z,32.65
2023-02-01T17:40:22.465Z,28.00
2023-02-01T17:42:52.275Z,26.55
2023-02-01T17:45:39.032Z,26.15
2023-02-01T17:48:08.478Z,29.50
2023-02-01T17:50:38.804Z,19.90
2023-02-01T17:53:10.118Z,24.33
2023-02-01T17:55:40.979Z,41.22
2023-02-01T17:58:14.394Z,52.33
2023-02-01T18:00:44.409Z,56.90
2023-02-01T18:03:30.601Z,45.00
2023-02-01T18:05:59.608Z,57.78
2023-02-01T18:08:29.703Z,52.92
2023-02-01T18:11:01.202Z,58.47
2023-02-01T18:13:31.418Z,65.00
2023-02-01T18:16:02.191Z,58.38
2023-02-01T18:18:33.448Z,49.10
2023-02-01T18:21:02.236Z,60.25
2023-02-01T18:23:31.192Z,48.33
2023-02-01T18:25:59.193Z,32.30
2023-02-01T18:28:27.640Z,34.80
2023-02-01T18:30:56.945Z,37.28
2023-02-01T18:33:24.975Z,38.85
2023-02-01T18:35:53.568Z,40.38
2023-02-01T18:38:21.777Z,47.10
2023-02-01T18:40:54.630Z,51.30
2023-02-01T18:43:23.839Z,53.65
2023-02-01T18:45:52.187Z,74.47
2023-02-01T18:48:22.528Z,90.82
2023-02-01T18:50:57.636Z,85.38
2023-02-01T18:53:27.844Z,89.65
2023-02-01T18:55:59.749Z,80.82
2023-02-01T18:58:28.519Z,87.03
2023-02-01T19:00:58.368Z,89.28
2023-02-01T19:03:27.132Z,89.80
2023-02-01T19:05:56.293Z,86.07
2023-02-01T19:08:26.001Z,70.53
2023-02-01T19:10:54.872Z,62.20
2023-02-01T19:13:24.644Z,81.18
2023-02-01T19:15:53.099Z,77.43
2023-02-01T19:18:22.126Z,84.05
2023-02-01T19:20:55.045Z,91.03
2023-02-01T19:23:23.711Z,87.97
2023-02-01T19:25:52.385Z,86.65
2023-02-01T19:28:20.563Z,91.85
2023-02-01T19:30:49.058Z,82.65
2023-02-01T19:33:17.844Z,91.90
2023-02-01T19:35:45.865Z,96.40
2023-02-01T19:38:14.479Z,94.50
2023-02-01T19:40:42.665Z,86.05
2023-02-01T19:43:10.700Z,81.05
2023-02-01T19:45:39.181Z,63.30
2023-02-01T19:48:07.889Z,61.92
2023-02-01T19:50:36.362Z,46.22
2023-02-01T19:53:04.729Z,49.15
2023-02-01T19:55:33.092Z,50.70
2023-02-01T19:58:02.536Z,45.38
2023-02-01T20:00:31.968Z,44.78
2023-02-01T20:03:00.070Z,50.22
2023-02-01T20:05:28.793Z,49.78
2023-02-01T20:07:57.341Z,52.50
2023-02-01T20:10:25.557Z,55.13
2023-02-01T20:12:53.937Z,58.50
2023-02-01T20:15:24.800Z,48.90
2023-02-01T20:17:53.133Z,42.40
2023-02-01T20:20:21.233Z,35.22
2023-02-01T20:22:49.546Z,38.85
2023-02-01T20:25:17.435Z,45.38
2023-02-01T20:27:46.337Z,38.63
2023-02-01T20:30:20.044Z,43.15
2023-02-01T20:32:51.840Z,40.55
2023-02-01T20:35:19.780Z,48.78
2023-02-01T20:37:49.102Z,42.60
2023-02-01T20:40:17.711Z,35.88
2023-02-01T20:42:45.628Z,45.00
2023-02-01T20:45:14.633Z,45.60
2023-02-01T20:47:43.569Z,40.63
2023-02-01T20:50:12.595Z,36.50
2023-02-01T20:52:40.884Z,45.17
2023-02-01T20:55:09.574Z,33.78
2023-02-01T20:57:37.512Z,39.33
2023-02-01T21:00:12.020Z,44.72
2023-02-01T21:02:40.460Z,43.85
2023-02-01T21:05:09.683Z,50.88
2023-02-01T21:07:38.313Z,42.45
2023-02-01T21:10:07.666Z,38.53
2023-02-01T21:12:36.771Z,33.13
2023-02-01T21:15:06.002Z,33.20
2023-02-01T21:17:34.505Z,30.98
2023-02-01T21:20:02.450Z,28.52
2023-02-01T21:22:31.427Z,26.50
2023-02-01T21:25:01.877Z,31.98
2023-02-01T21:27:30.650Z,35.70
2023-02-01T21:29:58.587Z,33.25
2023-02-01T21:32:26.592Z,31.20
2023-02-01T21:34:54.517Z,29.40
2023-02-01T21:37:25.782Z,31.88
2023-02-01T21:39:54.378Z,36.25
2023-02-01T21:42:24.660Z,33.90
2023-02-01T21:44:53.262Z,36.22
2023-02-01T21:47:26.051Z,33.65
2023-02-01T21:49:54.902Z,34.63
2023-02-01T21:52:23.814Z,34.90
2023-02-01T21:54:59.399Z,32.30
2023-02-01T21:57:29.521Z,30.75
2023-02-01T21:59:59.150Z,32.90
2023-02-01T22:02:28.145Z,34.38
2023-02-01T22:04:57.849Z,29.80
2023-02-01T22:07:25.875Z,33.40
2023-02-01T22:09:53.934Z,36.38
2023-02-01T22:12:23.043Z,35.78
2023-02-01T22:14:50.992Z,34.63
2023-02-01T22:17:19.842Z,42.65
2023-02-01T22:19:47.726Z,36.92
2023-02-01T22:22:16.703Z,35.38
2023-02-01T22:24:44.947Z,33.90
2023-02-01T22:27:14.430Z,37.75
2023-02-01T22:29:44.038Z,36.45
2023-02-01T22:32:14.201Z,27.63
2023-02-01T22:34:42.235Z,29.50
2023-02-01T22:37:11.875Z,34.47
2023-02-01T22:39:41.102Z,29.60
2023-02-01T22:42:09.779Z,24.75
2023-02-01T22:44:37.897Z,24.85
2023-02-01T22:47:06.698Z,23.20
2023-02-01T22:49:34.613Z,25.10
2023-02-01T22:52:02.532Z,25.90
2023-02-01T22:54:30.928Z,24.38
2023-02-01T22:57:00.247Z,22.08
2023-02-01T22:59:29.170Z,25.85
2023-02-01T23:01:57.078Z,22.30
2023-02-01T23:04:25.663Z,32.30
2023-02-01T23:06:54.558Z,30.17
2023-02-01T23:09:25.389Z,25.70
2023-02-01T23:11:55.282Z,30.98
2023-02-01T23:14:23.319Z,26.85
2023-02-01T23:16:52.156Z,25.98
2023-02-01T23:19:20.635Z,26.88
2023-02-01T23:21:49.841Z,31.85
2023-02-01T23:24:18.341Z,36.47
2023-02-01T23:26:46.884Z,38.80
2023-02-01T23:29:18.931Z,38.63
2023-02-01T23:31:47.372Z,40.35
2023-02-01T23:34:15.421Z,39.05
2023-02-01T23:36:43.526Z,39.00
2023-02-01T23:39:11.551Z,39.28
2023-02-01T23:41:39.522Z,35.55
2023-02-01T23:44:07.459Z,35.30
2023-02-01T23:46:39.225Z,32.03
2023-02-01T23:49:08.819Z,39.35
2023-02-01T23:51:37.673Z,34.33
2023-02-01T23:54:06.786Z,26.55
2023-02-01T23:56:37.144Z,27.00
2023-02-01T23:59:16.380Z,29.73
